sensor_id;sensor_type;location;lat;lon;timestamp;temperature;humidity
2997;DHT22;1508;48.744;9.110;2022-12-18T00:01:39;-6.60;99.90
2997;DHT22;1508;48.744;9.110;2022-12-18T00:04:26;-6.60;99.90
2997;DHT22;1508;48.744;9.110;2022-12-18T00:07:12;-6.70;99.90
2997;DHT22;1508;48.744;9.110;2022-12-18T00:09:58;-6.60;99.90
2997;DHT22;1508;48.744;9.110;2022-12-18T00:12:43;-6.60;99.90
2997;DHT22;1508;48.744;9.110;2022-12-18T00:15:29;-6.70;99.90
2997;DHT22;1508;48.744;9.110;2022-12-18T00:18:15;-6.70;99.90
2997;DHT22;1508;48.744;9.110;2022-12-18T00:21:04;-6.70;99.90
2997;DHT22;1508;48.744;9.110;2022-12-18T00:23:51;-6.60;99.90
2997;DHT22;1508;48.744;9.110;2022-12-18T00:26:38;-6.60;99.90
2997;DHT22;1508;48.744;9.110;2022-12-18T00:29:24;-6.60;99.90
2997;DHT22;1508;48.744;9.110;2022-12-18T00:32:10;-6.60;99.90
2997;DHT22;1508;48.744;9.110;2022-12-18T00:34:56;-6.70;99.90
2997;DHT22;1508;48.744;9.110;2022-12-18T00:37:41;-6.70;99.90
2997;DHT22;1508;48.744;9.110;2022-12-18T00:40:27;-6.70;99.90
2997;DHT22;1508;48.744;9.110;2022-12-18T00:43:13;-6.70;99.90
2997;DHT22;1508;48.744;9.110;2022-12-18T00:45:59;-6.70;99.90
2997;DHT22;1508;48.744;9.110;2022-12-18T00:48:45;-6.60;99.90
2997;DHT22;1508;48.744;9.110;2022-12-18T00:51:30;-6.60;99.90
2997;DHT22;1508;48.744;9.110;2022-12-18T00:54:17;-6.60;99.90
2997;DHT22;1508;48.744;9.110;2022-12-18T00:57:03;-6.60;99.90
2997;DHT22;1508;48.744;9.110;2022-12-18T00:59:49;-6.60;99.90
2997;DHT22;1508;48.744;9.110;2022-12-18T01:02:35;-6.70;99.90
2997;DHT22;1508;48.744;9.110;2022-12-18T01:05:21;-6.70;99.90
2997;DHT22;1508;48.744;9.110;2022-12-18T01:08:07;-6.70;99.90
2997;DHT22;1508;48.744;9.110;2022-12-18T01:10:53;-6.70;99.90
2997;DHT22;1508;48.744;9.110;2022-12-18T01:13:39;-6.70;99.90
2997;DHT22;1508;48.744;9.110;2022-12-18T01:16:25;-6.80;99.90
2997;DHT22;1508;48.744;9.110;2022-12-18T01:19:11;-6.80;99.90
2997;DHT22;1508;48.744;9.110;2022-12-18T01:21:57;-6.80;99.90
2997;DHT22;1508;48.744;9.110;2022-12-18T01:24:43;-6.90;99.90
2997;DHT22;1508;48.744;9.110;2022-12-18T01:27:29;-6.90;99.90
2997;DHT22;1508;48.744;9.110;2022-12-18T01:30:15;-6.90;99.90
2997;DHT22;1508;48.744;9.110;2022-12-18T01:33:01;-7.00;99.90
2997;DHT22;1508;48.744;9.110;2022-12-18T01:35:49;-7.00;99.90
2997;DHT22;1508;48.744;9.110;2022-12-18T01:38:35;-7.00;99.90
2997;DHT22;1508;48.744;9.110;2022-12-18T01:41:23;-7.10;99.90
2997;DHT22;1508;48.744;9.110;2022-12-18T01:50:25;-7.20;99.90
2997;DHT22;1508;48.744;9.110;2022-12-18T01:53:17;-7.20;99.90
2997;DHT22;1508;48.744;9.110;2022-12-18T01:56:03;-7.20;99.90
2997;DHT22;1508;48.744;9.110;2022-12-18T01:59:04;-7.20;99.90
2997;DHT22;1508;48.744;9.110;2022-12-18T02:01:51;-7.30;99.90
2997;DHT22;1508;48.744;9.110;2022-12-18T02:04:37;-7.30;99.90
2997;DHT22;1508;48.744;9.110;2022-12-18T02:07:32;-7.30;99.90
2997;DHT22;1508;48.744;9.110;2022-12-18T02:26:07;-7.20;99.90
2997;DHT22;1508;48.744;9.110;2022-12-18T02:29:00;-7.30;99.90
2997;DHT22;1508;48.744;9.110;2022-12-18T02:31:52;-7.30;99.90
2997;DHT22;1508;48.744;9.110;2022-12-18T02:34:39;-7.30;99.90
2997;DHT22;1508;48.744;9.110;2022-12-18T02:37:27;-7.30;99.90
2997;DHT22;1508;48.744;9.110;2022-12-18T02:40:14;-7.20;99.90
2997;DHT22;1508;48.744;9.110;2022-12-18T02:43:11;-7.30;99.90
2997;DHT22;1508;48.744;9.110;2022-12-18T02:45:59;-7.30;99.90
2997;DHT22;1508;48.744;9.110;2022-12-18T02:48:46;-7.30;99.90
2997;DHT22;1508;48.744;9.110;2022-12-18T02:51:49;-7.30;99.90
2997;DHT22;1508;48.744;9.110;2022-12-18T02:54:59;-7.30;99.90
2997;DHT22;1508;48.744;9.110;2022-12-18T02:58:03;-7.30;99.90
2997;DHT22;1508;48.744;9.110;2022-12-18T03:07:07;-7.30;99.90
2997;DHT22;1508;48.744;9.110;2022-12-18T03:09:54;-7.30;99.90
2997;DHT22;1508;48.744;9.110;2022-12-18T03:12:50;-7.30;99.90
2997;DHT22;1508;48.744;9.110;2022-12-18T03:15:49;-7.40;99.90
2997;DHT22;1508;48.744;9.110;2022-12-18T03:18:49;-7.40;99.90
2997;DHT22;1508;48.744;9.110;2022-12-18T03:21:48;-7.50;99.90
2997;DHT22;1508;48.744;9.110;2022-12-18T03:24:36;-7.50;99.90
2997;DHT22;1508;48.744;9.110;2022-12-18T03:27:24;-7.50;99.90
2997;DHT22;1508;48.744;9.110;2022-12-18T03:30:12;-7.50;99.90
2997;DHT22;1508;48.744;9.110;2022-12-18T03:33:44;-7.60;99.90
2997;DHT22;1508;48.744;9.110;2022-12-18T03:36:27;-7.60;99.90
2997;DHT22;1508;48.744;9.110;2022-12-18T03:39:13;-7.70;99.90
2997;DHT22;1508;48.744;9.110;2022-12-18T03:48:27;-7.70;99.90
2997;DHT22;1508;48.744;9.110;2022-12-18T03:51:28;-7.80;99.90
2997;DHT22;1508;48.744;9.110;2022-12-18T03:54:18;-7.90;99.90
2997;DHT22;1508;48.744;9.110;2022-12-18T03:57:13;-8.00;99.90
2997;DHT22;1508;48.744;9.110;2022-12-18T04:00:06;-8.00;99.90
2997;DHT22;1508;48.744;9.110;2022-12-18T04:02:55;-8.00;99.90
2997;DHT22;1508;48.744;9.110;2022-12-18T04:05:43;-8.00;99.90
2997;DHT22;1508;48.744;9.110;2022-12-18T04:08:29;-8.10;99.90
2997;DHT22;1508;48.744;9.110;2022-12-18T04:11:15;-8.10;99.90
2997;DHT22;1508;48.744;9.110;2022-12-18T04:14:01;-8.10;99.90
2997;DHT22;1508;48.744;9.110;2022-12-18T04:16:47;-8.10;99.90
2997;DHT22;1508;48.744;9.110;2022-12-18T04:19:33;-8.20;99.90
2997;DHT22;1508;48.744;9.110;2022-12-18T04:22:19;-8.20;99.90
2997;DHT22;1508;48.744;9.110;2022-12-18T04:25:04;-8.30;99.90
2997;DHT22;1508;48.744;9.110;2022-12-18T04:27:50;-8.30;99.90
2997;DHT22;1508;48.744;9.110;2022-12-18T04:30:36;-8.30;99.90
2997;DHT22;1508;48.744;9.110;2022-12-18T04:33:22;-8.40;99.90
2997;DHT22;1508;48.744;9.110;2022-12-18T04:36:11;-8.40;99.90
2997;DHT22;1508;48.744;9.110;2022-12-18T04:38:57;-8.50;99.90
2997;DHT22;1508;48.744;9.110;2022-12-18T04:41:42;-8.50;99.90
2997;DHT22;1508;48.744;9.110;2022-12-18T04:44:28;-8.40;99.90
2997;DHT22;1508;48.744;9.110;2022-12-18T04:47:14;-8.50;99.90
2997;DHT22;1508;48.744;9.110;2022-12-18T04:50:00;-8.50;99.90
2997;DHT22;1508;48.744;9.110;2022-12-18T04:52:46;-8.50;99.90
2997;DHT22;1508;48.744;9.110;2022-12-18T04:55:32;-8.50;99.90
2997;DHT22;1508;48.744;9.110;2022-12-18T04:58:17;-8.50;99.90
2997;DHT22;1508;48.744;9.110;2022-12-18T05:01:03;-8.60;99.90
2997;DHT22;1508;48.744;9.110;2022-12-18T05:03:51;-8.60;99.90
2997;DHT22;1508;48.744;9.110;2022-12-18T05:06:37;-8.60;99.90
2997;DHT22;1508;48.744;9.110;2022-12-18T05:09:23;-8.60;99.90
2997;DHT22;1508;48.744;9.110;2022-12-18T05:12:08;-8.60;99.90
2997;DHT22;1508;48.744;9.110;2022-12-18T05:14:54;-8.60;99.90
2997;DHT22;1508;48.744;9.110;2022-12-18T05:17:40;-8.50;99.90
2997;DHT22;1508;48.744;9.110;2022-12-18T05:20:27;-8.50;99.90
2997;DHT22;1508;48.744;9.110;2022-12-18T05:23:13;-8.40;99.90
2997;DHT22;1508;48.744;9.110;2022-12-18T05:26:01;-8.30;99.90
2997;DHT22;1508;48.744;9.110;2022-12-18T05:28:47;-8.30;99.90
2997;DHT22;1508;48.744;9.110;2022-12-18T05:31:33;-8.40;99.90
2997;DHT22;1508;48.744;9.110;2022-12-18T05:34:19;-8.40;99.90
2997;DHT22;1508;48.744;9.110;2022-12-18T05:37:05;-8.50;99.90
2997;DHT22;1508;48.744;9.110;2022-12-18T05:39:50;-8.60;99.90
2997;DHT22;1508;48.744;9.110;2022-12-18T05:42:36;-8.60;99.90
2997;DHT22;1508;48.744;9.110;2022-12-18T05:45:22;-8.60;99.90
2997;DHT22;1508;48.744;9.110;2022-12-18T05:48:09;-8.60;99.90
2997;DHT22;1508;48.744;9.110;2022-12-18T05:50:55;-8.60;99.90
2997;DHT22;1508;48.744;9.110;2022-12-18T05:53:41;-8.70;99.90
2997;DHT22;1508;48.744;9.110;2022-12-18T05:56:27;-8.70;99.90
2997;DHT22;1508;48.744;9.110;2022-12-18T05:59:15;-8.80;99.90
2997;DHT22;1508;48.744;9.110;2022-12-18T06:02:01;-8.90;99.90
2997;DHT22;1508;48.744;9.110;2022-12-18T06:04:47;-9.00;99.90
2997;DHT22;1508;48.744;9.110;2022-12-18T06:07:35;-9.10;99.90
2997;DHT22;1508;48.744;9.110;2022-12-18T06:10:21;-9.10;99.90
2997;DHT22;1508;48.744;9.110;2022-12-18T06:13:08;-9.10;99.90
2997;DHT22;1508;48.744;9.110;2022-12-18T06:15:54;-9.10;99.90
2997;DHT22;1508;48.744;9.110;2022-12-18T06:18:39;-9.10;99.90
2997;DHT22;1508;48.744;9.110;2022-12-18T06:21:26;-9.10;99.90
2997;DHT22;1508;48.744;9.110;2022-12-18T06:24:12;-9.10;99.90
2997;DHT22;1508;48.744;9.110;2022-12-18T06:26:57;-9.10;99.90
2997;DHT22;1508;48.744;9.110;2022-12-18T06:29:43;-9.30;99.90
2997;DHT22;1508;48.744;9.110;2022-12-18T06:32:29;-9.40;99.90
2997;DHT22;1508;48.744;9.110;2022-12-18T06:35:15;-9.50;99.90
2997;DHT22;1508;48.744;9.110;2022-12-18T06:38:02;-9.50;99.90
2997;DHT22;1508;48.744;9.110;2022-12-18T06:40:48;-9.40;99.90
2997;DHT22;1508;48.744;9.110;2022-12-18T06:43:34;-9.30;99.90
2997;DHT22;1508;48.744;9.110;2022-12-18T06:46:19;-9.10;99.90
2997;DHT22;1508;48.744;9.110;2022-12-18T06:49:05;-9.00;99.90
2997;DHT22;1508;48.744;9.110;2022-12-18T06:51:51;-8.90;99.90
2997;DHT22;1508;48.744;9.110;2022-12-18T06:54:37;-8.80;99.90
2997;DHT22;1508;48.744;9.110;2022-12-18T06:57:23;-8.70;99.90
2997;DHT22;1508;48.744;9.110;2022-12-18T07:00:09;-8.70;99.90
2997;DHT22;1508;48.744;9.110;2022-12-18T07:02:55;-8.70;99.90
2997;DHT22;1508;48.744;9.110;2022-12-18T07:05:41;-8.70;99.90
2997;DHT22;1508;48.744;9.110;2022-12-18T07:08:28;-8.70;99.90
2997;DHT22;1508;48.744;9.110;2022-12-18T07:11:15;-8.60;99.90
2997;DHT22;1508;48.744;9.110;2022-12-18T07:14:01;-8.40;99.90
2997;DHT22;1508;48.744;9.110;2022-12-18T07:16:48;-8.30;99.90
2997;DHT22;1508;48.744;9.110;2022-12-18T07:19:34;-8.10;99.90
2997;DHT22;1508;48.744;9.110;2022-12-18T07:22:20;-8.00;99.90
2997;DHT22;1508;48.744;9.110;2022-12-18T07:25:06;-7.90;99.90
2997;DHT22;1508;48.744;9.110;2022-12-18T07:27:52;-7.80;99.90
2997;DHT22;1508;48.744;9.110;2022-12-18T07:30:38;-7.70;99.90
2997;DHT22;1508;48.744;9.110;2022-12-18T07:33:24;-7.60;99.90
2997;DHT22;1508;48.744;9.110;2022-12-18T07:36:11;-7.50;99.90
2997;DHT22;1508;48.744;9.110;2022-12-18T07:38:56;-7.40;99.90
2997;DHT22;1508;48.744;9.110;2022-12-18T07:41:42;-7.30;99.90
2997;DHT22;1508;48.744;9.110;2022-12-18T07:44:28;-7.20;99.90
2997;DHT22;1508;48.744;9.110;2022-12-18T07:47:14;-7.10;99.90
2997;DHT22;1508;48.744;9.110;2022-12-18T07:50:00;-7.00;99.90
2997;DHT22;1508;48.744;9.110;2022-12-18T07:52:46;-6.90;99.90
2997;DHT22;1508;48.744;9.110;2022-12-18T07:55:32;-6.80;99.90
2997;DHT22;1508;48.744;9.110;2022-12-18T07:58:17;-6.60;99.90
2997;DHT22;1508;48.744;9.110;2022-12-18T08:01:08;-6.50;99.90
2997;DHT22;1508;48.744;9.110;2022-12-18T08:03:53;-6.30;99.90
2997;DHT22;1508;48.744;9.110;2022-12-18T08:06:39;-6.10;99.90
2997;DHT22;1508;48.744;9.110;2022-12-18T08:09:25;-5.90;99.90
2997;DHT22;1508;48.744;9.110;2022-12-18T08:12:11;-5.90;99.90
2997;DHT22;1508;48.744;9.110;2022-12-18T08:14:57;-5.70;99.90
2997;DHT22;1508;48.744;9.110;2022-12-18T08:17:43;-5.60;99.90
2997;DHT22;1508;48.744;9.110;2022-12-18T08:20:28;-5.50;99.90
2997;DHT22;1508;48.744;9.110;2022-12-18T08:23:14;-5.20;99.90
2997;DHT22;1508;48.744;9.110;2022-12-18T08:26:00;-5.00;99.90
2997;DHT22;1508;48.744;9.110;2022-12-18T08:28:46;-4.80;99.90
2997;DHT22;1508;48.744;9.110;2022-12-18T08:31:32;-4.60;99.90
2997;DHT22;1508;48.744;9.110;2022-12-18T08:34:18;-4.50;99.90
2997;DHT22;1508;48.744;9.110;2022-12-18T08:37:03;-4.50;99.90
2997;DHT22;1508;48.744;9.110;2022-12-18T08:39:49;-4.40;99.90
2997;DHT22;1508;48.744;9.110;2022-12-18T08:42:35;-4.40;99.90
2997;DHT22;1508;48.744;9.110;2022-12-18T08:45:21;-4.30;99.90
2997;DHT22;1508;48.744;9.110;2022-12-18T08:48:07;-4.20;99.90
2997;DHT22;1508;48.744;9.110;2022-12-18T08:50:56;-4.00;99.90
2997;DHT22;1508;48.744;9.110;2022-12-18T08:53:43;-3.80;99.90
2997;DHT22;1508;48.744;9.110;2022-12-18T08:56:29;-3.70;99.90
2997;DHT22;1508;48.744;9.110;2022-12-18T08:59:16;-3.60;99.90
2997;DHT22;1508;48.744;9.110;2022-12-18T09:02:02;-3.60;99.90
2997;DHT22;1508;48.744;9.110;2022-12-18T09:04:48;-3.30;99.90
2997;DHT22;1508;48.744;9.110;2022-12-18T09:07:34;-3.20;99.90
2997;DHT22;1508;48.744;9.110;2022-12-18T09:10:20;-3.00;99.90
2997;DHT22;1508;48.744;9.110;2022-12-18T09:13:05;-2.80;99.90
2997;DHT22;1508;48.744;9.110;2022-12-18T09:15:53;-2.70;99.90
2997;DHT22;1508;48.744;9.110;2022-12-18T09:18:39;-2.60;99.90
2997;DHT22;1508;48.744;9.110;2022-12-18T09:21:26;-2.40;99.90
2997;DHT22;1508;48.744;9.110;2022-12-18T09:24:13;-2.30;99.90
2997;DHT22;1508;48.744;9.110;2022-12-18T09:26:59;-2.20;99.90
2997;DHT22;1508;48.744;9.110;2022-12-18T09:29:45;-2.30;99.90
2997;DHT22;1508;48.744;9.110;2022-12-18T09:32:31;-2.10;99.90
2997;DHT22;1508;48.744;9.110;2022-12-18T09:35:17;-2.00;99.90
2997;DHT22;1508;48.744;9.110;2022-12-18T09:38:03;-2.20;99.90
2997;DHT22;1508;48.744;9.110;2022-12-18T09:40:56;-2.30;99.90
2997;DHT22;1508;48.744;9.110;2022-12-18T09:43:52;-2.40;99.90
2997;DHT22;1508;48.744;9.110;2022-12-18T09:46:47;-2.30;99.90
2997;DHT22;1508;48.744;9.110;2022-12-18T09:49:40;-2.30;99.90
2997;DHT22;1508;48.744;9.110;2022-12-18T09:52:40;-2.10;99.90
2997;DHT22;1508;48.744;9.110;2022-12-18T09:55:36;-2.30;99.90
2997;DHT22;1508;48.744;9.110;2022-12-18T10:01:12;-2.30;99.90
2997;DHT22;1508;48.744;9.110;2022-12-18T10:03:59;-2.20;99.90
2997;DHT22;1508;48.744;9.110;2022-12-18T10:06:55;-2.30;99.90
2997;DHT22;1508;48.744;9.110;2022-12-18T10:21:48;-1.90;99.90
2997;DHT22;1508;48.744;9.110;2022-12-18T10:25:05;-1.90;99.90
2997;DHT22;1508;48.744;9.110;2022-12-18T10:27:58;-1.80;99.90
2997;DHT22;1508;48.744;9.110;2022-12-18T10:30:46;-1.60;99.90
2997;DHT22;1508;48.744;9.110;2022-12-18T10:33:36;-1.40;99.90
2997;DHT22;1508;48.744;9.110;2022-12-18T10:36:24;-1.30;99.90
2997;DHT22;1508;48.744;9.110;2022-12-18T10:39:21;-1.40;99.90
2997;DHT22;1508;48.744;9.110;2022-12-18T10:42:17;-1.10;99.90
2997;DHT22;1508;48.744;9.110;2022-12-18T10:45:10;-1.20;99.90
2997;DHT22;1508;48.744;9.110;2022-12-18T10:48:00;-0.90;99.90
2997;DHT22;1508;48.744;9.110;2022-12-18T10:50:48;-0.60;99.90
2997;DHT22;1508;48.744;9.110;2022-12-18T10:53:36;-0.60;99.90
2997;DHT22;1508;48.744;9.110;2022-12-18T10:56:24;-0.60;99.90
2997;DHT22;1508;48.744;9.110;2022-12-18T10:59:13;-0.50;99.90
2997;DHT22;1508;48.744;9.110;2022-12-18T11:01:59;-0.80;99.90
2997;DHT22;1508;48.744;9.110;2022-12-18T11:04:52;-0.70;99.90
2997;DHT22;1508;48.744;9.110;2022-12-18T11:07:49;-0.40;99.90
2997;DHT22;1508;48.744;9.110;2022-12-18T11:10:37;-0.30;99.90
2997;DHT22;1508;48.744;9.110;2022-12-18T11:13:26;-0.20;99.90
2997;DHT22;1508;48.744;9.110;2022-12-18T11:16:19;-0.30;99.90
2997;DHT22;1508;48.744;9.110;2022-12-18T11:19:33;-0.20;99.90
2997;DHT22;1508;48.744;9.110;2022-12-18T11:22:28;0.10;99.90
2997;DHT22;1508;48.744;9.110;2022-12-18T11:28:08;0.10;99.90
2997;DHT22;1508;48.744;9.110;2022-12-18T11:31:24;-0.10;99.90
2997;DHT22;1508;48.744;9.110;2022-12-18T11:34:30;-0.50;99.90
2997;DHT22;1508;48.744;9.110;2022-12-18T11:37:17;-0.70;99.90
2997;DHT22;1508;48.744;9.110;2022-12-18T11:40:15;-0.60;99.90
2997;DHT22;1508;48.744;9.110;2022-12-18T11:44:02;-0.70;99.90
2997;DHT22;1508;48.744;9.110;2022-12-18T11:46:33;-0.40;99.90
2997;DHT22;1508;48.744;9.110;2022-12-18T11:49:27;-0.20;99.90
2997;DHT22;1508;48.744;9.110;2022-12-18T11:52:26;-0.20;99.90
2997;DHT22;1508;48.744;9.110;2022-12-18T12:04:41;0.40;99.90
2997;DHT22;1508;48.744;9.110;2022-12-18T12:13:40;0.20;99.90
2997;DHT22;1508;48.744;9.110;2022-12-18T12:16:42;0.00;99.90
2997;DHT22;1508;48.744;9.110;2022-12-18T12:26:23;-0.10;99.90
2997;DHT22;1508;48.744;9.110;2022-12-18T12:32:49;-0.20;99.90
2997;DHT22;1508;48.744;9.110;2022-12-18T12:36:01;-0.40;99.90
2997;DHT22;1508;48.744;9.110;2022-12-18T12:38:56;-0.20;99.90
2997;DHT22;1508;48.744;9.110;2022-12-18T12:41:45;0.00;99.90
2997;DHT22;1508;48.744;9.110;2022-12-18T12:44:42;0.10;99.90
2997;DHT22;1508;48.744;9.110;2022-12-18T12:47:35;0.00;99.90
2997;DHT22;1508;48.744;9.110;2022-12-18T12:50:24;0.20;99.90
2997;DHT22;1508;48.744;9.110;2022-12-18T12:53:23;0.30;99.90
2997;DHT22;1508;48.744;9.110;2022-12-18T12:56:16;0.40;99.90
2997;DHT22;1508;48.744;9.110;2022-12-18T12:59:15;0.30;99.90
2997;DHT22;1508;48.744;9.110;2022-12-18T13:02:27;0.30;99.90
2997;DHT22;1508;48.744;9.110;2022-12-18T13:06:19;0.40;99.90
2997;DHT22;1508;48.744;9.110;2022-12-18T13:08:34;0.40;99.90
2997;DHT22;1508;48.744;9.110;2022-12-18T13:14:39;0.30;99.90
2997;DHT22;1508;48.744;9.110;2022-12-18T13:17:30;0.40;99.90
2997;DHT22;1508;48.744;9.110;2022-12-18T13:20:16;0.20;99.90
2997;DHT22;1508;48.744;9.110;2022-12-18T13:29:02;0.00;99.90
2997;DHT22;1508;48.744;9.110;2022-12-18T13:34:34;0.00;99.90
2997;DHT22;1508;48.744;9.110;2022-12-18T13:43:53;-0.10;99.90
2997;DHT22;1508;48.744;9.110;2022-12-18T13:46:46;-0.10;99.90
2997;DHT22;1508;48.744;9.110;2022-12-18T13:52:33;-0.10;99.90
2997;DHT22;1508;48.744;9.110;2022-12-18T13:55:20;-0.10;99.90
2997;DHT22;1508;48.744;9.110;2022-12-18T13:58:12;-0.10;99.90
2997;DHT22;1508;48.744;9.110;2022-12-18T14:00:57;-0.30;99.90
2997;DHT22;1508;48.744;9.110;2022-12-18T14:03:43;-0.20;99.90
2997;DHT22;1508;48.744;9.110;2022-12-18T14:06:29;-0.40;99.90
2997;DHT22;1508;48.744;9.110;2022-12-18T14:09:20;-0.40;99.90
2997;DHT22;1508;48.744;9.110;2022-12-18T14:12:30;-0.60;99.90
2997;DHT22;1508;48.744;9.110;2022-12-18T14:18:26;-0.70;99.90
2997;DHT22;1508;48.744;9.110;2022-12-18T14:21:19;-0.90;99.90
2997;DHT22;1508;48.744;9.110;2022-12-18T14:24:21;-0.80;99.90
2997;DHT22;1508;48.744;9.110;2022-12-18T14:27:23;-0.90;99.90
2997;DHT22;1508;48.744;9.110;2022-12-18T14:33:15;-1.00;99.90
2997;DHT22;1508;48.744;9.110;2022-12-18T14:36:04;-1.00;99.90
2997;DHT22;1508;48.744;9.110;2022-12-18T14:38:57;-1.10;99.90
2997;DHT22;1508;48.744;9.110;2022-12-18T14:41:43;-1.10;99.90
2997;DHT22;1508;48.744;9.110;2022-12-18T14:44:29;-1.20;99.90
2997;DHT22;1508;48.744;9.110;2022-12-18T14:47:16;-1.20;99.90
2997;DHT22;1508;48.744;9.110;2022-12-18T14:50:02;-1.30;99.90
2997;DHT22;1508;48.744;9.110;2022-12-18T14:52:48;-1.40;99.90
2997;DHT22;1508;48.744;9.110;2022-12-18T14:55:34;-1.50;99.90
2997;DHT22;1508;48.744;9.110;2022-12-18T14:58:20;-1.50;99.90
2997;DHT22;1508;48.744;9.110;2022-12-18T15:01:07;-1.50;99.90
2997;DHT22;1508;48.744;9.110;2022-12-18T15:03:54;-1.60;99.90
2997;DHT22;1508;48.744;9.110;2022-12-18T15:06:40;-1.60;99.90
2997;DHT22;1508;48.744;9.110;2022-12-18T15:09:26;-1.70;99.90
2997;DHT22;1508;48.744;9.110;2022-12-18T15:12:25;-1.70;99.90
2997;DHT22;1508;48.744;9.110;2022-12-18T15:18:29;-1.80;99.90
2997;DHT22;1508;48.744;9.110;2022-12-18T15:21:19;-1.90;99.90
2997;DHT22;1508;48.744;9.110;2022-12-18T15:24:17;-2.00;99.90
2997;DHT22;1508;48.744;9.110;2022-12-18T15:27:03;-2.00;99.90
2997;DHT22;1508;48.744;9.110;2022-12-18T15:33:18;-2.10;99.90
2997;DHT22;1508;48.744;9.110;2022-12-18T15:36:12;-2.20;99.90
2997;DHT22;1508;48.744;9.110;2022-12-18T15:38:58;-2.20;99.90
2997;DHT22;1508;48.744;9.110;2022-12-18T15:41:44;-2.40;99.90
2997;DHT22;1508;48.744;9.110;2022-12-18T15:44:30;-2.50;99.90
2997;DHT22;1508;48.744;9.110;2022-12-18T15:47:16;-2.40;99.90
2997;DHT22;1508;48.744;9.110;2022-12-18T15:50:02;-2.40;99.90
2997;DHT22;1508;48.744;9.110;2022-12-18T15:52:50;-2.50;99.90
2997;DHT22;1508;48.744;9.110;2022-12-18T15:55:37;-2.50;99.90
2997;DHT22;1508;48.744;9.110;2022-12-18T15:58:23;-2.50;99.90
2997;DHT22;1508;48.744;9.110;2022-12-18T16:01:10;-2.60;99.90
2997;DHT22;1508;48.744;9.110;2022-12-18T16:03:56;-2.70;99.90
2997;DHT22;1508;48.744;9.110;2022-12-18T16:06:43;-2.80;99.90
2997;DHT22;1508;48.744;9.110;2022-12-18T16:09:28;-2.80;99.90
2997;DHT22;1508;48.744;9.110;2022-12-18T16:12:20;-2.80;99.90
2997;DHT22;1508;48.744;9.110;2022-12-18T16:15:07;-2.80;99.90
2997;DHT22;1508;48.744;9.110;2022-12-18T16:17:53;-2.90;99.90
2997;DHT22;1508;48.744;9.110;2022-12-18T16:20:39;-2.90;99.90
2997;DHT22;1508;48.744;9.110;2022-12-18T16:23:25;-3.00;99.90
2997;DHT22;1508;48.744;9.110;2022-12-18T16:26:11;-3.00;99.90
2997;DHT22;1508;48.744;9.110;2022-12-18T16:28:56;-2.90;99.90
2997;DHT22;1508;48.744;9.110;2022-12-18T16:31:42;-2.90;99.90
2997;DHT22;1508;48.744;9.110;2022-12-18T16:34:30;-2.90;99.90
2997;DHT22;1508;48.744;9.110;2022-12-18T16:37:16;-2.90;99.90
2997;DHT22;1508;48.744;9.110;2022-12-18T16:40:02;-2.80;99.90
2997;DHT22;1508;48.744;9.110;2022-12-18T16:42:48;-2.80;99.90
2997;DHT22;1508;48.744;9.110;2022-12-18T16:45:34;-2.70;99.90
2997;DHT22;1508;48.744;9.110;2022-12-18T16:48:20;-2.70;99.90
2997;DHT22;1508;48.744;9.110;2022-12-18T16:51:06;-2.80;99.90
2997;DHT22;1508;48.744;9.110;2022-12-18T16:53:52;-2.80;99.90
2997;DHT22;1508;48.744;9.110;2022-12-18T16:56:38;-2.80;99.90
2997;DHT22;1508;48.744;9.110;2022-12-18T16:59:24;-2.90;99.90
2997;DHT22;1508;48.744;9.110;2022-12-18T17:02:18;-2.90;99.90
2997;DHT22;1508;48.744;9.110;2022-12-18T17:05:04;-2.90;99.90
2997;DHT22;1508;48.744;9.110;2022-12-18T17:07:50;-2.80;99.90
2997;DHT22;1508;48.744;9.110;2022-12-18T17:10:36;-2.80;99.90
2997;DHT22;1508;48.744;9.110;2022-12-18T17:13:26;-2.70;99.90
2997;DHT22;1508;48.744;9.110;2022-12-18T17:16:11;-2.70;99.90
2997;DHT22;1508;48.744;9.110;2022-12-18T17:18:57;-2.60;99.90
2997;DHT22;1508;48.744;9.110;2022-12-18T17:21:45;-2.50;99.90
2997;DHT22;1508;48.744;9.110;2022-12-18T17:24:32;-2.50;99.90
2997;DHT22;1508;48.744;9.110;2022-12-18T17:27:18;-2.40;99.90
2997;DHT22;1508;48.744;9.110;2022-12-18T17:30:04;-2.40;99.90
2997;DHT22;1508;48.744;9.110;2022-12-18T17:32:50;-2.40;99.90
2997;DHT22;1508;48.744;9.110;2022-12-18T17:35:36;-2.40;99.90
2997;DHT22;1508;48.744;9.110;2022-12-18T17:38:21;-2.40;99.90
2997;DHT22;1508;48.744;9.110;2022-12-18T17:41:09;-2.40;99.90
2997;DHT22;1508;48.744;9.110;2022-12-18T17:44:03;-2.40;99.90
2997;DHT22;1508;48.744;9.110;2022-12-18T17:46:49;-2.30;99.90
2997;DHT22;1508;48.744;9.110;2022-12-18T17:49:35;-2.30;99.90
2997;DHT22;1508;48.744;9.110;2022-12-18T17:52:21;-2.30;99.90
2997;DHT22;1508;48.744;9.110;2022-12-18T17:55:07;-2.30;99.90
2997;DHT22;1508;48.744;9.110;2022-12-18T17:57:53;-2.20;99.90
2997;DHT22;1508;48.744;9.110;2022-12-18T18:00:39;-2.20;99.90
2997;DHT22;1508;48.744;9.110;2022-12-18T18:03:25;-2.10;99.90
2997;DHT22;1508;48.744;9.110;2022-12-18T18:06:11;-2.10;99.90
2997;DHT22;1508;48.744;9.110;2022-12-18T18:08:57;-2.20;99.90
2997;DHT22;1508;48.744;9.110;2022-12-18T18:11:46;-2.20;99.90
2997;DHT22;1508;48.744;9.110;2022-12-18T18:14:32;-2.20;99.90
2997;DHT22;1508;48.744;9.110;2022-12-18T18:17:18;-2.20;99.90
2997;DHT22;1508;48.744;9.110;2022-12-18T18:20:04;-2.30;99.90
2997;DHT22;1508;48.744;9.110;2022-12-18T18:22:50;-2.30;99.90
2997;DHT22;1508;48.744;9.110;2022-12-18T18:25:36;-2.30;99.90
2997;DHT22;1508;48.744;9.110;2022-12-18T18:28:22;-2.20;99.90
2997;DHT22;1508;48.744;9.110;2022-12-18T18:31:09;-2.10;99.90
2997;DHT22;1508;48.744;9.110;2022-12-18T18:33:55;-2.20;99.90
2997;DHT22;1508;48.744;9.110;2022-12-18T18:36:41;-2.20;99.90
2997;DHT22;1508;48.744;9.110;2022-12-18T18:39:28;-2.30;99.90
2997;DHT22;1508;48.744;9.110;2022-12-18T18:42:13;-2.20;99.90
2997;DHT22;1508;48.744;9.110;2022-12-18T18:44:59;-2.10;99.90
2997;DHT22;1508;48.744;9.110;2022-12-18T18:47:45;-2.00;99.90
2997;DHT22;1508;48.744;9.110;2022-12-18T18:50:31;-2.00;99.90
2997;DHT22;1508;48.744;9.110;2022-12-18T18:53:17;-1.90;99.90
2997;DHT22;1508;48.744;9.110;2022-12-18T18:56:05;-1.90;99.90
2997;DHT22;1508;48.744;9.110;2022-12-18T18:58:51;-2.00;99.90
2997;DHT22;1508;48.744;9.110;2022-12-18T19:01:37;-2.00;99.90
2997;DHT22;1508;48.744;9.110;2022-12-18T19:04:22;-2.00;99.90
2997;DHT22;1508;48.744;9.110;2022-12-18T19:07:08;-1.90;99.90
2997;DHT22;1508;48.744;9.110;2022-12-18T19:09:54;-1.80;99.90
2997;DHT22;1508;48.744;9.110;2022-12-18T19:12:40;-1.80;99.90
2997;DHT22;1508;48.744;9.110;2022-12-18T19:15:26;-1.80;99.90
2997;DHT22;1508;48.744;9.110;2022-12-18T19:18:11;-1.70;99.90
2997;DHT22;1508;48.744;9.110;2022-12-18T19:21:02;-1.80;99.90
2997;DHT22;1508;48.744;9.110;2022-12-18T19:23:49;-1.80;99.90
2997;DHT22;1508;48.744;9.110;2022-12-18T19:26:34;-1.80;99.90
2997;DHT22;1508;48.744;9.110;2022-12-18T19:29:20;-1.80;99.90
2997;DHT22;1508;48.744;9.110;2022-12-18T19:32:09;-1.80;99.90
2997;DHT22;1508;48.744;9.110;2022-12-18T19:34:55;-1.70;99.90
2997;DHT22;1508;48.744;9.110;2022-12-18T19:37:41;-1.70;99.90
2997;DHT22;1508;48.744;9.110;2022-12-18T19:40:27;-1.70;99.90
2997;DHT22;1508;48.744;9.110;2022-12-18T19:43:13;-1.70;99.90
2997;DHT22;1508;48.744;9.110;2022-12-18T19:45:59;-1.70;99.90
2997;DHT22;1508;48.744;9.110;2022-12-18T19:48:46;-1.90;99.90
2997;DHT22;1508;48.744;9.110;2022-12-18T19:51:32;-1.90;99.90
2997;DHT22;1508;48.744;9.110;2022-12-18T19:54:17;-1.90;99.90
2997;DHT22;1508;48.744;9.110;2022-12-18T19:57:03;-1.90;99.90
2997;DHT22;1508;48.744;9.110;2022-12-18T19:59:49;-1.80;99.90
2997;DHT22;1508;48.744;9.110;2022-12-18T20:02:35;-1.80;99.90
2997;DHT22;1508;48.744;9.110;2022-12-18T20:05:21;-1.70;99.90
2997;DHT22;1508;48.744;9.110;2022-12-18T20:08:07;-1.70;99.90
2997;DHT22;1508;48.744;9.110;2022-12-18T20:10:53;-1.70;99.90
2997;DHT22;1508;48.744;9.110;2022-12-18T20:13:38;-1.60;99.90